Flight Track Log - Related Links

Times and Time Zones

All times are in EDT time to prevent confusion due to time zone crossing. See the N680AN flight status page for this flight to view local times or setup timezone preferences in your user account.

Time Position Orientation Groundspeed Altitude Reporting Facility
EDT Latitude Longitude Course Direction KTS MPH feet Rate Location/Type
Sat 10:06:18 AM 25.7961 -80.2697 104° East 157 181 1,000  Level Miami Center
Sat 10:07:20 AM 25.7764 -80.2186 113° Southeast 209 241 2,800 1,556 Climbing Miami Center
Sat 10:07:39 AM 25.7706 -80.1975 107° East 227 261 3,100 2,852 Climbing Miami Center
Sat 10:08:00 AM 25.6770 -79.8798 104° East  Level FlightAware Approximate
Sat 10:08:21 AM 25.7467 -80.1483 118° Southeast 257 296 5,700  Level Miami Center
Sat 10:08:39 AM 25.7450 -80.1300 96° East 260 299 6,200 2,462 Climbing Miami Center
Sat 10:09:00 AM 25.6441 -79.7431 105° East  Level FlightAware Approximate
Sat 10:09:39 AM 25.7258 -80.0511 105° East 260 299 8,900  Level Miami Center
Sat 10:10:00 AM 25.6229 -79.6049 104° East  Level FlightAware Approximate
Sat 10:10:39 AM 25.7089 -79.9653 102° East 265 305 11,400  Level Miami Center
Sat 10:11:00 AM 25.5913 -79.4679 104° East  Level FlightAware Approximate
Sat 10:11:39 AM 25.6900 -79.8725 103° East 283 326 13,800  Level Miami Center
Sat 10:12:39 AM 25.6689 -79.7822 105° East 290 334 16,500 2,150 Climbing Miami Center
Sat 10:13:39 AM 25.6478 -79.6825 103° East 312 359 18,100 1,400 Climbing Miami Center
Sat 10:14:39 AM 25.6206 -79.5692 105° East 342 394 19,300 1,600 Climbing Miami Center
Sat 10:15:39 AM 25.5936 -79.4486 104° East 379 436 21,300 1,950 Climbing Miami Center
Sat 10:16:39 AM 25.5686 -79.3236 102° East 399 459 23,200 1,750 Climbing Miami Center
Sat 10:17:39 AM 25.5142 -79.2053 117° Southeast 412 474 24,800 1,650 Climbing Miami Center
Sat 10:18:39 AM 25.4533 -79.0819 119° Southeast 425 489 26,500 1,600 Climbing Miami Center
Sat 10:19:39 AM 25.3944 -78.9589 118° Southeast 444 511 28,000 1,450 Climbing Miami Center
Sat 10:20:39 AM 25.3336 -78.8361 119° Southeast 455 524 29,400 1,300 Climbing Miami Center
Sat 10:21:39 AM 25.2600 -78.7108 123° Southeast 470 541 30,600 1,350 Climbing Miami Center
Sat 10:22:39 AM 25.1714 -78.5994 131° Southeast 483 556 32,100 1,450 Climbing Miami Center
Sat 10:23:39 AM 25.0767 -78.4878 133° Southeast 483 556 33,500 1,400 Climbing Miami Center
Sat 10:24:39 AM 24.9858 -78.3811 133° Southeast 483 556 34,900 1,350 Climbing Miami Center
Sat 10:25:39 AM 24.8950 -78.2725 133° Southeast 478 550 36,200 1,050 Climbing Miami Center
Sat 10:26:39 AM 24.8019 -78.1639 133° Southeast 478 550 37,000 400 Climbing Miami Center
Sat 10:27:39 AM 24.7108 -78.0531 132° Southeast 478 550 37,000  Level Miami Center
Sat 10:28:39 AM 24.6197 -77.9469 133° Southeast 478 550 37,000  Level Miami Center
Sat 10:29:39 AM 24.5283 -77.8389 133° Southeast 478 550 37,000  Level Miami Center
Sat 10:30:39 AM 24.4372 -77.7308 133° Southeast 478 550 37,000  Level Miami Center
Sat 10:31:39 AM 24.3458 -77.6231 133° Southeast 478 550 37,000  Level Miami Center
Sat 10:32:39 AM 24.2544 -77.5153 133° Southeast 478 550 37,000  Level Miami Center
Sat 10:33:39 AM 24.1669 -77.4147 134° Southeast 478 550 37,000  Level Miami Center
Sat 10:34:39 AM 24.0753 -77.3072 133° Southeast 473 544 37,000  Level Miami Center
Sat 10:35:39 AM 23.9858 -77.2022 133° Southeast 473 544 37,000  Level Miami Center
Sat 10:36:39 AM 23.8939 -77.0975 134° Southeast 473 544 37,000  Level Miami Center
Sat 10:37:39 AM 23.7981 -76.9839 133° Southeast 473 544 37,000  Level Miami Center
Sat 10:38:39 AM 23.7061 -76.8792 134° Southeast 473 544 37,000  Level Miami Center
Sat 10:39:39 AM 23.6142 -76.7750 134° Southeast 473 544 37,000  Level Miami Center
Sat 10:40:39 AM 23.5242 -76.6708 133° Southeast 473 544 37,000  Level Miami Center
Sat 10:41:39 AM 23.4319 -76.5644 133° Southeast 473 544 37,000  Level Miami Center
Sat 10:42:39 AM 23.3419 -76.4628 134° Southeast 473 544 37,000  Level Miami Center
Sat 10:43:39 AM 23.2497 -76.3569 133° Southeast 473 544 37,000  Level Miami Center
Sat 10:44:39 AM 23.1594 -76.2533 133° Southeast 473 544 37,000  Level Miami Center
Sat 10:45:39 AM 23.0669 -76.1478 134° Southeast 473 544 37,000  Level Miami Center
Sat 10:46:39 AM 22.9725 -76.0419 134° Southeast 473 544 37,000  Level Miami Center
Sat 10:47:39 AM 22.8819 -75.9367 133° Southeast 473 544 37,000  Level Miami Center
Sat 10:48:39 AM 22.7894 -75.8336 134° Southeast 473 544 37,000  Level Miami Center
Sat 10:49:39 AM 22.7008 -75.7264 132° Southeast 473 544 37,000  Level Miami Center
Sat 10:50:39 AM 22.6081 -75.6214 134° Southeast 473 544 37,000  Level Miami Center
Sat 10:51:39 AM 22.5175 -75.5167 133° Southeast 473 544 37,000  Level Miami Center
Sat 10:52:39 AM 22.4244 -75.4119 134° Southeast 473 544 37,000  Level Miami Center
Sat 10:53:39 AM 22.3317 -75.3075 134° Southeast 478 550 37,000  Level Miami Center
Sat 10:54:39 AM 22.2386 -75.2031 134° Southeast 473 544 37,000  Level Miami Center
Sat 10:55:39 AM 22.1456 -75.0967 133° Southeast 478 550 37,000  Level Miami Center
Sat 10:56:39 AM 22.0522 -74.9925 134° Southeast 478 550 37,000  Level Miami Center
Sat 10:57:39 AM 21.9611 -74.8819 132° Southeast 484 557 37,000  Level Miami Center
Sat 10:58:39 AM 21.8739 -74.7714 130° Southeast 484 557 37,000  Level Miami Center
Sat 10:59:39 AM 21.7825 -74.6611 132° Southeast 484 557 37,000  Level Miami Center
Sat 11:00:39 AM 21.7019 -74.5664 132° Southeast 484 557 37,000  Level Miami Center
Sat 11:01:39 AM 21.6103 -74.4539 131° Southeast 484 557 37,000  Level Miami Center
Sat 11:02:39 AM 21.5208 -74.3394 130° Southeast 490 564 37,000  Level Miami Center
Sat 11:03:39 AM 21.4292 -74.2319 132° Southeast 490 564 37,000  Level Miami Center
Sat 11:04:39 AM 21.3375 -74.1203 131° Southeast 490 564 37,000  Level Miami Center
Sat 11:05:39 AM 21.2458 -74.0108 132° Southeast 490 564 37,000  Level Miami Center
Sat 11:06:39 AM 21.1517 -73.8969 132° Southeast 496 571 37,000  Level Miami Center
Sat 11:07:39 AM 21.0597 -73.7856 131° Southeast 496 571 37,000  Level Miami Center
Sat 11:08:39 AM 20.9636 -73.6744 133° Southeast 501 577 37,000  Level Miami Center
Sat 11:09:39 AM 20.8717 -73.5633 132° Southeast 501 577 37,000  Level Miami Center
Sat 11:10:39 AM 20.7794 -73.4525 132° Southeast 506 582 37,000  Level Miami Center
Sat 11:11:39 AM 20.6872 -73.3417 132° Southeast 506 582 37,000  Level Miami Center
Sat 11:12:39 AM 20.5950 -73.2289 131° Southeast 506 582 37,000  Level Miami Center
Sat 11:13:39 AM 20.5025 -73.1183 132° Southeast 506 582 37,000  Level Miami Center
Sat 11:14:39 AM 20.4103 -73.0103 132° Southeast 506 582 37,000  Level Miami Center
Sat 11:15:39 AM 20.3281 -72.8953 127° Southeast 506 582 37,000  Level Miami Center
Sat 11:16:39 AM 20.2397 -72.7786 129° Southeast 506 582 37,000  Level Miami Center
Sat 11:18:00 AM 20.1317 -72.6390 128° Southeast  Level FlightAware Approximate
Sat 11:25:00 AM 19.5919 -71.8989 128° Southeast  Level FlightAware Approximate
Sat 11:26:00 AM 19.5145 -71.7936 128° Southeast  Level FlightAware Approximate
Sat 11:27:00 AM 19.4371 -71.6884 128° Southeast  Level FlightAware Approximate
Sat 11:28:00 AM 19.3588 -71.5840 128° Southeast  Level FlightAware Approximate
Sat 11:29:00 AM 19.2805 -71.4796 128° Southeast  Level FlightAware Approximate
Sat 11:30:00 AM 19.2021 -71.3754 129° Southeast  Level FlightAware Approximate
Sat 11:31:00 AM 19.1236 -71.2713 129° Southeast  Level FlightAware Approximate
Sat 11:32:00 AM 19.0451 -71.1673 129° Southeast  Level FlightAware Approximate
Sat 11:33:00 AM 18.9665 -71.0633 129° Southeast  Level FlightAware Approximate
Sat 11:34:00 AM 18.8878 -70.9595 129° Southeast  Level FlightAware Approximate
Sat 11:35:00 AM 18.8091 -70.8558 129° Southeast  Level FlightAware Approximate
Sat 11:36:00 AM 18.7304 -70.7521 129° Southeast  Level FlightAware Approximate
Sat 11:37:00 AM 18.6515 -70.6486 129° Southeast  Level FlightAware Approximate
Sat 11:38:00 AM 18.5727 -70.5451 129° Southeast  Level FlightAware Approximate
Sat 11:39:00 AM 18.4939 -70.4417 128° Southeast  Level FlightAware Approximate
Sat 11:40:00 AM 18.4169 -70.3367 128° Southeast  Level FlightAware Approximate
Sat 11:41:00 AM 18.3398 -70.2319 128° Southeast  Level FlightAware Approximate
Sat 11:42:00 AM 18.2627 -70.1272 128° Southeast  Level FlightAware Approximate
Sat 11:43:00 AM 18.1856 -70.0226 128° Southeast  Level FlightAware Approximate
Sat 11:44:00 AM 18.1083 -69.9180 128° Southeast  Level FlightAware Approximate
Sat 11:45:00 AM 18.0310 -69.8136 129° Southeast  Level FlightAware Approximate
Sat 11:46:00 AM 17.9515 -69.7111 129° Southeast  Level FlightAware Approximate
Sat 11:47:00 AM 17.8720 -69.6086 129° Southeast  Level FlightAware Approximate
Sat 11:48:00 AM 17.7924 -69.5062 129° Southeast  Level FlightAware Approximate
Sat 11:49:00 AM 17.7128 -69.4039 129° Southeast  Level FlightAware Approximate
Sat 11:50:00 AM 17.6331 -69.3017 129° Southeast  Level FlightAware Approximate
Sat 11:51:00 AM 17.5534 -69.1995 129° Southeast  Level FlightAware Approximate
Sat 11:52:00 AM 17.4741 -69.0971 129° Southeast  Level FlightAware Approximate
Sat 11:53:00 AM 17.3947 -68.9948 129° Southeast  Level FlightAware Approximate
Sat 11:54:00 AM 17.3153 -68.8925 129° Southeast  Level FlightAware Approximate
Sat 11:55:00 AM 17.2358 -68.7904 129° Southeast  Level FlightAware Approximate
Sat 11:55:43 AM 16.8667 -68.3333 129° Southeast 490 564 37,000  Level San Juan Center
Sat 11:56:00 AM 17.1562 -68.6883 129° Southeast  Level FlightAware Approximate
Sat 11:56:43 AM 16.7833 -68.2167 127° Southeast 490 564 37,000  Level San Juan Center
Sat 11:57:00 AM 17.0766 -68.5864 129° Southeast  Level FlightAware Approximate
Sat 11:57:44 AM 16.7000 -68.1000 127° Southeast 490 564 37,000  Level San Juan Center
Sat 11:58:00 AM 16.9970 -68.4845 129° Southeast  Level FlightAware Approximate
Sat 11:58:44 AM 16.6167 -68.0000 131° Southeast 490 564 37,000  Level San Juan Center
Sat 11:59:00 AM 16.9173 -68.3827 129° Southeast  Level FlightAware Approximate
Sat 11:59:44 AM 16.5167 -67.8833 132° Southeast 480 552 37,000  Level San Juan Center
Sat 12:00:00 PM 16.8376 -68.2810 129° Southeast  Level FlightAware Approximate
Sat 12:00:44 PM 16.4500 -67.7833 125° Southeast 460 529 37,000  Level San Juan Center
Sat 12:01:45 PM 16.3667 -67.6667 127° Southeast 500 575 37,000  Level San Juan Center
Sat 12:02:45 PM 16.2667 -67.5500 132° Southeast 500 575 37,000  Level San Juan Center
Sat 12:03:45 PM 16.1833 -67.4333 127° Southeast 490 564 37,000  Level San Juan Center
Sat 12:04:46 PM 16.1000 -67.3333 131° Southeast 490 564 37,000  Level San Juan Center
Sat 12:05:46 PM 16.0167 -67.2167 127° Southeast 480 552 37,000  Level San Juan Center
Sat 12:06:46 PM 15.9333 -67.1167 131° Southeast 480 552 37,000  Level San Juan Center
Sat 12:07:47 PM 15.8500 -67.0167 131° Southeast 480 552 37,000  Level San Juan Center
Sat 12:08:47 PM 15.7667 -66.9000 127° Southeast 480 552 37,000  Level San Juan Center
Sat 12:09:47 PM 15.6833 -66.8000 131° Southeast 480 552 37,000  Level San Juan Center
Sat 12:10:47 PM 15.6000 -66.6833 127° Southeast 470 541 37,000  Level San Juan Center
Sat 12:11:48 PM 15.5167 -66.5833 131° Southeast 480 552 37,000  Level San Juan Center
Sat 12:12:48 PM 15.4167 -66.4833 136° Southeast 480 552 37,000  Level San Juan Center
Sat 12:13:48 PM 15.3333 -66.3833 131° Southeast 480 552 37,000  Level San Juan Center
Sat 12:15:00 PM 15.2301 -66.2703 133° Southeast  Level FlightAware Approximate
Sat 12:22:00 PM 14.6268 -65.6134 133° Southeast  Level FlightAware Approximate
Sat 12:23:00 PM 14.5405 -65.5198 134° Southeast  Level FlightAware Approximate
Sat 12:24:00 PM 14.4541 -65.4264 134° Southeast  Level FlightAware Approximate
Sat 12:25:00 PM 14.3677 -65.3329 134° Southeast  Level FlightAware Approximate
Sat 12:26:00 PM 14.2813 -65.2396 134° Southeast  Level FlightAware Approximate
Sat 12:27:00 PM 14.1948 -65.1463 134° Southeast  Level FlightAware Approximate
Sat 12:28:00 PM 14.1083 -65.0531 134° Southeast  Level FlightAware Approximate
Sat 12:29:00 PM 14.0217 -64.9600 134° Southeast  Level FlightAware Approximate
Sat 12:30:00 PM 13.9351 -64.8670 134° Southeast  Level FlightAware Approximate
Sat 12:31:00 PM 13.8485 -64.7740 134° Southeast  Level FlightAware Approximate
Sat 12:32:00 PM 13.7619 -64.6811 134° Southeast  Level FlightAware Approximate
Sat 12:33:00 PM 13.6752 -64.5882 134° Southeast  Level FlightAware Approximate
Sat 12:34:00 PM 13.5884 -64.4955 134° Southeast  Level FlightAware Approximate
Sat 12:35:00 PM 13.5017 -64.4028 134° Southeast  Level FlightAware Approximate
Sat 12:36:00 PM 13.4149 -64.3101 134° Southeast  Level FlightAware Approximate
Sat 12:37:00 PM 13.3280 -64.2176 134° Southeast  Level FlightAware Approximate
Sat 12:38:00 PM 13.2412 -64.1250 134° Southeast  Level FlightAware Approximate
Sat 12:39:00 PM 13.1543 -64.0326 134° Southeast  Level FlightAware Approximate
Sat 12:40:00 PM 13.0674 -63.9402 134° Southeast  Level FlightAware Approximate
Sat 12:41:00 PM 12.9804 -63.8479 134° Southeast  Level FlightAware Approximate
Sat 12:42:00 PM 12.8934 -63.7557 134° Southeast  Level FlightAware Approximate
Sat 12:43:00 PM 12.8064 -63.6635 134° Southeast  Level FlightAware Approximate
Sat 12:44:00 PM 12.7193 -63.5714 134° Southeast  Level FlightAware Approximate
Sat 12:45:00 PM 12.6318 -63.4794 134° Southeast  Level FlightAware Approximate
Sat 12:46:00 PM 12.5443 -63.3878 134° Southeast  Level FlightAware Approximate
Sat 12:47:00 PM 12.4568 -63.2963 134° Southeast  Level FlightAware Approximate
Sat 12:48:00 PM 12.3692 -63.2048 134° Southeast  Level FlightAware Approximate
Sat 12:49:00 PM 12.2832 -63.1118 132° Southeast  Level FlightAware Approximate
Sat 12:50:00 PM 12.1998 -63.0164 136° Southeast  Level FlightAware Approximate
Sat 12:51:00 PM 12.1103 -62.9269 136° Southeast  Level FlightAware Approximate
Sat 12:52:00 PM 12.0209 -62.8375 136° Southeast  Level FlightAware Approximate
Sat 12:53:00 PM 11.9402 -62.7402 136° Southeast  Level FlightAware Approximate
Sat 12:54:00 PM 11.8508 -62.6507 136° Southeast  Level FlightAware Approximate
Sat 12:55:00 PM 11.7614 -62.5613 136° Southeast  Level FlightAware Approximate
Sat 12:56:00 PM 11.6720 -62.4720 136° Southeast  Level FlightAware Approximate
Sat 12:57:00 PM 11.5826 -62.3826 136° Southeast  Level FlightAware Approximate
Sat 12:58:00 PM 11.4936 -62.2929 133° Southeast  Level FlightAware Approximate
Sat 12:59:00 PM 11.4083 -62.1995 133° Southeast  Level FlightAware Approximate
Sat 01:00:00 PM 11.3231 -62.1061 133° Southeast  Level FlightAware Approximate
Sat 01:01:00 PM 11.2378 -62.0127 133° Southeast  Level FlightAware Approximate
Sat 01:02:00 PM 11.1525 -61.9194 133° Southeast  Level FlightAware Approximate
Sat 01:03:00 PM 11.0634 -61.8300 136° Southeast  Level FlightAware Approximate
Sat 01:04:00 PM 10.9741 -61.7407 136° Southeast  Level FlightAware Approximate
Sat 01:05:00 PM 10.8848 -61.6515 136° Southeast  Level FlightAware Approximate
Sat 01:06:00 PM 10.8015 -61.5564 132° Southeast  Level FlightAware Approximate
Sat 01:07:00 PM 10.7081 -61.4727 144° Southeast  Level FlightAware Approximate
Sat 01:08:00 PM 10.6325 -61.3825 135° Southeast  Level FlightAware Approximate
Sat 01:09:00 PM 10.6000 -61.3500 135° Southeast  Level FlightAware Approximate
Sat 01:10:00 PM 10.5954 -61.3372 135° Southeast  Level Estimated
Sat 01:11:00 PM 10.5954 -61.3372 135° Southeast  Level Estimated
Sat 01:12:00 PM 10.5954 -61.3372 135° Southeast  Level Estimated
Sat 01:13:00 PM 10.5954 -61.3372 135° Southeast  Level Estimated
Sat 01:14:00 PM 10.5954 -61.3372 135° Southeast  Level Estimated
Sat 01:15:00 PM 10.5954 -61.3372 135° Southeast  Level Estimated
Sat 01:16:00 PM 10.5954 -61.3372 135° Southeast  Level Estimated
Sat 01:17:00 PM 10.5954 -61.3372 135° Southeast  Level Estimated
Sat 01:18:00 PM 10.5954 -61.3372 135° Southeast  Level Estimated
Sat 01:19:00 PM 10.5954 -61.3372 135° Southeast  Level Estimated
Sat 01:20:00 PM 10.5954 -61.3372 135° Southeast  Level Estimated
Sat 01:21:00 PM 10.5954 -61.3372 135° Southeast  Level Estimated
Sat 01:22:00 PM 10.5954 -61.3372 135° Southeast  Level Estimated
Sat 01:23:00 PM 10.5954 -61.3372 135° Southeast  Level Estimated
Sat 01:24:00 PM 10.5954 -61.3372 135° Southeast  Level Estimated
Sat 01:25:00 PM 10.5954 -61.3372 135° Southeast  Level Estimated

Login

Don't have an account? Register now (free) for customized features, flight alerts, and more!